Sea Brave — V7UC5 — position and weather

sailwx.info

Track history (hours):
 
Tides and Currents Weather Stations Pressure Air Temp Water Temp Dewpoint Dewpoint Depression Visibility Wind Speed Wind Dir Waves Ship Positions

Sea Brave

Last reported at 2018-May-05 15:36 UTC. Time now 2018-Jun-19 06:45 UTC.
Position N 27°46' W 015°16'.
Warning: this ship's position is 44 days out of date.

Length 177 m; draft 10.1 m.

Type: Cargo ship. MMSI: 538003930.

Date/timePositionNaut miles runAvg speedWind from/ knotsBaromVisibWave heightAir tempDewpointWater temp
2018-May-05 15:36N 27°46' W 015°16'211.3
2018-May-05 15:28N 27°47' W 015°16'511.1
2018-May-05 15:00N 27°53' W 015°16'611.2
2018-May-05 14:30N 27°58' W 015°16'611.2
2018-May-05 14:00N 28°04' W 015°17'510.2
2018-May-05 13:30N 28°09' W 015°18'1 1.5
2018-May-05 13:01N 28°09' W 015°19'1 1.4
2018-May-05 12:30N 28°09' W 015°20'4 8.7
2018-May-05 12:01N 28°13' W 015°20'611.3
2018-May-05 11:31N 28°19' W 015°20'611.1
2018-May-05 11:00N 28°24' W 015°18'611.0
2018-May-05 10:29N 28°30' W 015°17'8 0.7
2018-May-04 22:05N 28°24' W 015°11'0 1.3
2018-May-04 21:57N 28°24' W 015°11'0 1.0
2018-May-04 21:30N 28°24' W 015°11'1 1.0
2018-May-04 21:01N 28°25' W 015°10'1 0.8
2018-May-04 19:18N 28°26' W 015°10'0 0.8
2018-May-04 18:47N 28°26' W 015°10'6 1.8
2018-May-04 15:39N 28°21' W 015°11'1 5.2
2018-May-04 15:30N 28°20' W 015°11'3 5.1
2018-May-04 14:59N 28°17' W 015°11'2 4.9
2018-May-04 14:30N 28°15' W 015°10'2 3.9
2018-May-04 14:00N 28°13' W 015°11'2 4.3
2018-May-04 13:30N 28°11' W 015°12'2 4.2
2018-May-04 12:59N 28°09' W 015°14'2 4.3
2018-May-04 12:30N 28°09' W 015°16'2 4.1
2018-May-04 12:00N 28°09' W 015°18'1 3.0
2018-May-04 11:30N 28°09' W 015°20'1 2.7
2018-May-04 11:00N 28°09' W 015°21'1 2.5
2018-May-04 10:30N 28°10' W 015°21'3 6.8
2018-May-04 10:00N 28°12' W 015°18'3 6.7
2018-May-04 09:30N 28°14' W 015°15'3 6.9
2018-May-04 09:00N 28°17' W 015°12'3 6.7
2018-May-04 08:30N 28°19' W 015°10'3 6.6
2018-May-04 08:00N 28°22' W 015°07'3 6.5
2018-May-04 07:30N 28°24' W 015°05'3 6.6
2018-May-04 07:00N 28°27' W 015°03'3 6.8
2018-May-04 06:30N 28°29' W 015°00'3 6.8
2018-May-04 06:00N 28°32' W 014°57'4 6.9
2018-May-04 05:29N 28°35' W 014°55'  
2018-Apr-28 21:40N 35°58' W 005°55'711.8
2018-Apr-28 21:06N 35°58' W 005°47'311.8
2018-Apr-28 20:49N 35°58' W 005°43'411.3
2018-Apr-28 20:30N 35°58' W 005°38'5 8.5
2018-Apr-28 19:58N 35°59' W 005°32'4 8.4
2018-Apr-28 19:30N 36°00' W 005°28'4 8.4
2018-Apr-28 19:00N 36°03' W 005°24'5 9.4
2018-Apr-28 18:30N 36°07' W 005°23'1 0.1
2018-Apr-28 10:04N 36°08' W 005°22'0 2.0
2018-Apr-28 09:59N 36°08' W 005°22'2 5.2
2018-Apr-28 09:30N 36°06' W 005°22'2 4.8
2018-Apr-28 09:00N 36°05' W 005°19'2 3.6
2018-Apr-28 08:28N 36°05' W 005°17'0 0.6
2018-Apr-28 08:00N 36°05' W 005°16'1 2.0
2018-Apr-28 07:30N 36°05' W 005°15'1410.0
2018-Apr-28 06:04N 36°07' W 004°57'1 9.7
2018-Apr-28 05:58N 36°07' W 004°56'511.4
2018-Apr-28 05:31N 36°08' W 004°50'19811.1
2018-Apr-27 11:45N 36°36' W 000°47'41012.1
2018-Apr-26 01:57N 37°31' E 007°43'612.5
2018-Apr-26 01:30N 37°32' E 007°50'2612.0
2018-Apr-25 23:20N 37°35' E 008°22'  
Track history (hours):
 
Tides and Currents Weather Stations Pressure Air Temp Water Temp Dewpoint Dewpoint Depression Visibility Wind Speed Wind Dir Waves Ship Positions

Sea Brave

Last reported at 2018-May-05 15:36 UTC. Time now 2018-Jun-19 06:45 UTC.
Position N 27°46' W 015°16'.
Warning: this ship's position is 44 days out of date.

Length 177 m; draft 10.1 m.

Type: Cargo ship. MMSI: 538003930.

Date/timePositionNaut miles runAvg speedWind from/ knotsBaromVisibWave heightAir tempDewpointWater temp
2018-May-05 15:36N 27°46' W 015°16'211.3
2018-May-05 15:28N 27°47' W 015°16'511.1
2018-May-05 15:00N 27°53' W 015°16'611.2
2018-May-05 14:30N 27°58' W 015°16'611.2
2018-May-05 14:00N 28°04' W 015°17'510.2
2018-May-05 13:30N 28°09' W 015°18'1 1.5
2018-May-05 13:01N 28°09' W 015°19'1 1.4
2018-May-05 12:30N 28°09' W 015°20'4 8.7
2018-May-05 12:01N 28°13' W 015°20'611.3
2018-May-05 11:31N 28°19' W 015°20'611.1
2018-May-05 11:00N 28°24' W 015°18'611.0
2018-May-05 10:29N 28°30' W 015°17'8 0.7
2018-May-04 22:05N 28°24' W 015°11'0 1.3
2018-May-04 21:57N 28°24' W 015°11'0 1.0
2018-May-04 21:30N 28°24' W 015°11'1 1.0
2018-May-04 21:01N 28°25' W 015°10'1 0.8
2018-May-04 19:18N 28°26' W 015°10'0 0.8
2018-May-04 18:47N 28°26' W 015°10'6 1.8
2018-May-04 15:39N 28°21' W 015°11'1 5.2
2018-May-04 15:30N 28°20' W 015°11'3 5.1
2018-May-04 14:59N 28°17' W 015°11'2 4.9
2018-May-04 14:30N 28°15' W 015°10'2 3.9
2018-May-04 14:00N 28°13' W 015°11'2 4.3
2018-May-04 13:30N 28°11' W 015°12'2 4.2
2018-May-04 12:59N 28°09' W 015°14'2 4.3
2018-May-04 12:30N 28°09' W 015°16'2 4.1
2018-May-04 12:00N 28°09' W 015°18'1 3.0
2018-May-04 11:30N 28°09' W 015°20'1 2.7
2018-May-04 11:00N 28°09' W 015°21'1 2.5
2018-May-04 10:30N 28°10' W 015°21'3 6.8
2018-May-04 10:00N 28°12' W 015°18'3 6.7
2018-May-04 09:30N 28°14' W 015°15'3 6.9
2018-May-04 09:00N 28°17' W 015°12'3 6.7
2018-May-04 08:30N 28°19' W 015°10'3 6.6
2018-May-04 08:00N 28°22' W 015°07'3 6.5
2018-May-04 07:30N 28°24' W 015°05'3 6.6
2018-May-04 07:00N 28°27' W 015°03'3 6.8
2018-May-04 06:30N 28°29' W 015°00'3 6.8
2018-May-04 06:00N 28°32' W 014°57'4 6.9
2018-May-04 05:29N 28°35' W 014°55'  
2018-Apr-28 21:40N 35°58' W 005°55'711.8
2018-Apr-28 21:06N 35°58' W 005°47'311.8
2018-Apr-28 20:49N 35°58' W 005°43'411.3
2018-Apr-28 20:30N 35°58' W 005°38'5 8.5
2018-Apr-28 19:58N 35°59' W 005°32'4 8.4
2018-Apr-28 19:30N 36°00' W 005°28'4 8.4
2018-Apr-28 19:00N 36°03' W 005°24'5 9.4
2018-Apr-28 18:30N 36°07' W 005°23'1 0.1
2018-Apr-28 10:04N 36°08' W 005°22'0 2.0
2018-Apr-28 09:59N 36°08' W 005°22'2 5.2
2018-Apr-28 09:30N 36°06' W 005°22'2 4.8
2018-Apr-28 09:00N 36°05' W 005°19'2 3.6
2018-Apr-28 08:28N 36°05' W 005°17'0 0.6
2018-Apr-28 08:00N 36°05' W 005°16'1 2.0
2018-Apr-28 07:30N 36°05' W 005°15'1410.0
2018-Apr-28 06:04N 36°07' W 004°57'1 9.7
2018-Apr-28 05:58N 36°07' W 004°56'511.4
2018-Apr-28 05:31N 36°08' W 004°50'19811.1
2018-Apr-27 11:45N 36°36' W 000°47'41012.1
2018-Apr-26 01:57N 37°31' E 007°43'612.5
2018-Apr-26 01:30N 37°32' E 007°50'2612.0
2018-Apr-25 23:20N 37°35' E 008°22'  

Dump ship's entire track history